sensor_id;sensor_type;location;lat;lon;timestamp;temperature;humidity
22676;DHT22;12521;43.310;21.876;2023-12-29T00:03:13;4.4;96.0
22676;DHT22;12521;43.310;21.876;2023-12-29T00:07:49;4.4;96.0
22676;DHT22;12521;43.310;21.876;2023-12-29T00:12:25;4.3;96.0
22676;DHT22;12521;43.310;21.876;2023-12-29T00:17:03;4.3;96.0
22676;DHT22;12521;43.310;21.876;2023-12-29T00:21:39;4.3;96.0
22676;DHT22;12521;43.310;21.876;2023-12-29T00:26:16;4.2;96.0
22676;DHT22;12521;43.310;21.876;2023-12-29T00:30:53;4.2;96.0
22676;DHT22;12521;43.310;21.876;2023-12-29T00:35:30;4.1;96.0
22676;DHT22;12521;43.310;21.876;2023-12-29T00:40:08;4.1;96.0
22676;DHT22;12521;43.310;21.876;2023-12-29T00:44:47;4.0;96.0
22676;DHT22;12521;43.310;21.876;2023-12-29T00:49:23;4.0;96.0
22676;DHT22;12521;43.310;21.876;2023-12-29T00:54:00;4.0;96.0
22676;DHT22;12521;43.310;21.876;2023-12-29T00:58:36;4.0;96.0
22676;DHT22;12521;43.310;21.876;2023-12-29T01:03:12;4.0;96.0
22676;DHT22;12521;43.310;21.876;2023-12-29T01:07:49;4.0;96.0
22676;DHT22;12521;43.310;21.876;2023-12-29T01:12:25;3.9;96.0
22676;DHT22;12521;43.310;21.876;2023-12-29T01:17:01;3.9;96.0
22676;DHT22;12521;43.310;21.876;2023-12-29T01:21:38;3.9;96.0
22676;DHT22;12521;43.310;21.876;2023-12-29T01:26:14;3.8;96.0
22676;DHT22;12521;43.310;21.876;2023-12-29T01:30:50;3.8;96.0
22676;DHT22;12521;43.310;21.876;2023-12-29T01:35:26;3.7;96.0
22676;DHT22;12521;43.310;21.876;2023-12-29T01:40:04;3.7;96.0
22676;DHT22;12521;43.310;21.876;2023-12-29T01:44:44;3.6;96.0
22676;DHT22;12521;43.310;21.876;2023-12-29T01:49:22;3.6;96.0
22676;DHT22;12521;43.310;21.876;2023-12-29T01:53:59;3.5;96.0
22676;DHT22;12521;43.310;21.876;2023-12-29T01:58:37;3.5;96.0
22676;DHT22;12521;43.310;21.876;2023-12-29T02:03:14;3.4;96.0
22676;DHT22;12521;43.310;21.876;2023-12-29T02:07:52;3.4;96.0
22676;DHT22;12521;43.310;21.876;2023-12-29T02:12:29;3.4;96.0
22676;DHT22;12521;43.310;21.876;2023-12-29T02:17:10;3.4;96.0
22676;DHT22;12521;43.310;21.876;2023-12-29T02:22:11;3.4;96.0
22676;DHT22;12521;43.310;21.876;2023-12-29T02:26:57;3.3;96.0
22676;DHT22;12521;43.310;21.876;2023-12-29T02:32:22;3.3;96.0
22676;DHT22;12521;43.310;21.876;2023-12-29T02:37:05;3.2;96.0
22676;DHT22;12521;43.310;21.876;2023-12-29T02:41:47;3.2;96.0
22676;DHT22;12521;43.310;21.876;2023-12-29T02:46:23;3.2;96.0
22676;DHT22;12521;43.310;21.876;2023-12-29T02:50:59;3.2;96.0
22676;DHT22;12521;43.310;21.876;2023-12-29T02:55:35;3.3;96.0
22676;DHT22;12521;43.310;21.876;2023-12-29T03:00:12;3.3;96.0
22676;DHT22;12521;43.310;21.876;2023-12-29T03:04:51;3.2;96.0
22676;DHT22;12521;43.310;21.876;2023-12-29T03:09:27;3.2;96.0
22676;DHT22;12521;43.310;21.876;2023-12-29T03:14:03;3.2;96.0
22676;DHT22;12521;43.310;21.876;2023-12-29T03:18:40;3.2;96.0
22676;DHT22;12521;43.310;21.876;2023-12-29T03:23:16;3.1;96.0
22676;DHT22;12521;43.310;21.876;2023-12-29T03:27:52;3.1;96.0
22676;DHT22;12521;43.310;21.876;2023-12-29T03:32:29;3.1;96.0
22676;DHT22;12521;43.310;21.876;2023-12-29T03:37:05;3.0;96.0
22676;DHT22;12521;43.310;21.876;2023-12-29T03:41:41;3.0;96.0
22676;DHT22;12521;43.310;21.876;2023-12-29T03:46:18;3.0;96.0
22676;DHT22;12521;43.310;21.876;2023-12-29T03:50:57;3.0;96.0
22676;DHT22;12521;43.310;21.876;2023-12-29T03:55:33;2.9;96.0
22676;DHT22;12521;43.310;21.876;2023-12-29T04:00:12;2.9;96.0
22676;DHT22;12521;43.310;21.876;2023-12-29T04:04:50;2.8;96.0
22676;DHT22;12521;43.310;21.876;2023-12-29T04:09:26;2.8;96.0
22676;DHT22;12521;43.310;21.876;2023-12-29T04:14:02;2.8;96.0
22676;DHT22;12521;43.310;21.876;2023-12-29T04:18:39;2.8;96.0
22676;DHT22;12521;43.310;21.876;2023-12-29T04:23:15;2.8;96.0
22676;DHT22;12521;43.310;21.876;2023-12-29T04:27:52;2.8;96.0
22676;DHT22;12521;43.310;21.876;2023-12-29T04:32:28;2.8;96.0
22676;DHT22;12521;43.310;21.876;2023-12-29T04:37:04;2.7;96.0
22676;DHT22;12521;43.310;21.876;2023-12-29T04:41:41;2.7;96.0
22676;DHT22;12521;43.310;21.876;2023-12-29T04:46:17;2.7;96.0
22676;DHT22;12521;43.310;21.876;2023-12-29T04:50:54;2.7;96.0
22676;DHT22;12521;43.310;21.876;2023-12-29T04:55:30;2.6;96.0
22676;DHT22;12521;43.310;21.876;2023-12-29T05:00:07;2.6;96.0
22676;DHT22;12521;43.310;21.876;2023-12-29T05:04:47;2.6;96.0
22676;DHT22;12521;43.310;21.876;2023-12-29T05:09:24;2.6;96.0
22676;DHT22;12521;43.310;21.876;2023-12-29T05:14:00;2.5;96.0
22676;DHT22;12521;43.310;21.876;2023-12-29T05:18:36;2.5;96.0
22676;DHT22;12521;43.310;21.876;2023-12-29T05:23:12;2.5;96.0
22676;DHT22;12521;43.310;21.876;2023-12-29T05:27:48;2.5;96.0
22676;DHT22;12521;43.310;21.876;2023-12-29T05:32:24;2.5;96.0
22676;DHT22;12521;43.310;21.876;2023-12-29T05:37:00;2.5;96.0
22676;DHT22;12521;43.310;21.876;2023-12-29T05:41:37;2.5;96.0
22676;DHT22;12521;43.310;21.876;2023-12-29T05:46:14;2.5;96.0
22676;DHT22;12521;43.310;21.876;2023-12-29T05:50:50;2.5;96.0
22676;DHT22;12521;43.310;21.876;2023-12-29T05:55:29;2.5;96.0
22676;DHT22;12521;43.310;21.876;2023-12-29T06:00:06;2.5;96.0
22676;DHT22;12521;43.310;21.876;2023-12-29T06:04:48;2.4;96.0
22676;DHT22;12521;43.310;21.876;2023-12-29T06:09:24;2.4;96.0
22676;DHT22;12521;43.310;21.876;2023-12-29T06:14:01;2.4;96.0
22676;DHT22;12521;43.310;21.876;2023-12-29T06:18:39;2.4;96.0
22676;DHT22;12521;43.310;21.876;2023-12-29T06:23:15;2.4;96.0
22676;DHT22;12521;43.310;21.876;2023-12-29T06:27:51;2.4;96.0
22676;DHT22;12521;43.310;21.876;2023-12-29T06:32:29;2.4;96.0
22676;DHT22;12521;43.310;21.876;2023-12-29T06:37:06;2.4;96.0
22676;DHT22;12521;43.310;21.876;2023-12-29T06:41:43;2.4;96.0
22676;DHT22;12521;43.310;21.876;2023-12-29T06:46:19;2.4;96.0
22676;DHT22;12521;43.310;21.876;2023-12-29T06:50:55;2.4;96.0
22676;DHT22;12521;43.310;21.876;2023-12-29T06:55:31;2.4;96.0
22676;DHT22;12521;43.310;21.876;2023-12-29T07:00:09;2.4;96.0
22676;DHT22;12521;43.310;21.876;2023-12-29T07:04:48;2.4;96.0
22676;DHT22;12521;43.310;21.876;2023-12-29T07:09:25;2.4;96.0
22676;DHT22;12521;43.310;21.876;2023-12-29T07:14:01;2.5;96.0
22676;DHT22;12521;43.310;21.876;2023-12-29T07:18:38;2.5;96.0
22676;DHT22;12521;43.310;21.876;2023-12-29T07:23:15;2.6;96.0
22676;DHT22;12521;43.310;21.876;2023-12-29T07:27:51;2.6;96.0
22676;DHT22;12521;43.310;21.876;2023-12-29T07:32:28;2.6;96.0
22676;DHT22;12521;43.310;21.876;2023-12-29T07:37:04;2.6;96.0
22676;DHT22;12521;43.310;21.876;2023-12-29T07:41:42;2.6;96.0
22676;DHT22;12521;43.310;21.876;2023-12-29T07:46:23;2.7;96.0
22676;DHT22;12521;43.310;21.876;2023-12-29T07:51:04;2.7;96.0
22676;DHT22;12521;43.310;21.876;2023-12-29T07:55:43;2.8;96.0
22676;DHT22;12521;43.310;21.876;2023-12-29T08:00:20;2.8;96.0
22676;DHT22;12521;43.310;21.876;2023-12-29T08:04:56;2.8;96.0
22676;DHT22;12521;43.310;21.876;2023-12-29T08:09:32;2.8;96.0
22676;DHT22;12521;43.310;21.876;2023-12-29T08:14:08;2.9;96.0
22676;DHT22;12521;43.310;21.876;2023-12-29T08:18:45;2.9;96.0
22676;DHT22;12521;43.310;21.876;2023-12-29T08:23:25;2.9;96.0
22676;DHT22;12521;43.310;21.876;2023-12-29T08:28:01;2.9;96.0
22676;DHT22;12521;43.310;21.876;2023-12-29T08:32:39;2.9;96.0
22676;DHT22;12521;43.310;21.876;2023-12-29T08:37:16;2.9;96.0
22676;DHT22;12521;43.310;21.876;2023-12-29T08:41:52;2.9;96.0
22676;DHT22;12521;43.310;21.876;2023-12-29T08:46:29;3.1;96.0
22676;DHT22;12521;43.310;21.876;2023-12-29T08:51:05;3.1;96.0
22676;DHT22;12521;43.310;21.876;2023-12-29T08:55:41;3.3;96.0
22676;DHT22;12521;43.310;21.876;2023-12-29T09:00:18;3.3;96.0
22676;DHT22;12521;43.310;21.876;2023-12-29T09:04:56;3.6;96.0
22676;DHT22;12521;43.310;21.876;2023-12-29T09:09:32;3.6;96.0
22676;DHT22;12521;43.310;21.876;2023-12-29T09:14:08;3.8;96.0
22676;DHT22;12521;43.310;21.876;2023-12-29T09:18:45;3.8;96.0
22676;DHT22;12521;43.310;21.876;2023-12-29T09:23:21;4.0;96.0
22676;DHT22;12521;43.310;21.876;2023-12-29T09:27:57;4.0;96.0
22676;DHT22;12521;43.310;21.876;2023-12-29T09:32:33;4.0;96.0
22676;DHT22;12521;43.310;21.876;2023-12-29T09:37:09;4.3;96.0
22676;DHT22;12521;43.310;21.876;2023-12-29T09:41:46;4.3;96.0
22676;DHT22;12521;43.310;21.876;2023-12-29T09:46:36;4.5;96.0
22676;DHT22;12521;43.310;21.876;2023-12-29T09:51:13;4.5;96.0
22676;DHT22;12521;43.310;21.876;2023-12-29T09:55:53;4.7;96.0
22676;DHT22;12521;43.310;21.876;2023-12-29T10:00:36;4.7;96.0
22676;DHT22;12521;43.310;21.876;2023-12-29T10:05:17;5.1;96.0
22676;DHT22;12521;43.310;21.876;2023-12-29T10:09:56;5.1;96.0
22676;DHT22;12521;43.310;21.876;2023-12-29T10:14:46;5.5;96.0
22676;DHT22;12521;43.310;21.876;2023-12-29T10:19:53;5.5;96.0
22676;DHT22;12521;43.310;21.876;2023-12-29T10:25:29;5.8;96.0
22676;DHT22;12521;43.310;21.876;2023-12-29T10:30:10;5.8;96.0
22676;DHT22;12521;43.310;21.876;2023-12-29T10:35:00;6.1;96.0
22676;DHT22;12521;43.310;21.876;2023-12-29T10:39:55;6.1;96.0
22676;DHT22;12521;43.310;21.876;2023-12-29T10:44:33;6.4;96.0
22676;DHT22;12521;43.310;21.876;2023-12-29T10:49:13;6.4;96.0
22676;DHT22;12521;43.310;21.876;2023-12-29T10:53:54;6.7;96.0
22676;DHT22;12521;43.310;21.876;2023-12-29T10:58:31;6.7;96.0
22676;DHT22;12521;43.310;21.876;2023-12-29T11:03:14;7.0;96.0
22676;DHT22;12521;43.310;21.876;2023-12-29T11:07:53;7.0;96.0
22676;DHT22;12521;43.310;21.876;2023-12-29T11:12:33;7.0;96.0
22676;DHT22;12521;43.310;21.876;2023-12-29T11:17:14;7.3;96.0
22676;DHT22;12521;43.310;21.876;2023-12-29T11:21:55;7.3;96.0
22676;DHT22;12521;43.310;21.876;2023-12-29T11:26:35;7.8;96.0
22676;DHT22;12521;43.310;21.876;2023-12-29T11:31:16;7.8;96.0
22676;DHT22;12521;43.310;21.876;2023-12-29T11:36:00;8.2;96.0
22676;DHT22;12521;43.310;21.876;2023-12-29T11:41:05;8.2;96.0
22676;DHT22;12521;43.310;21.876;2023-12-29T11:46:32;8.4;96.0
22676;DHT22;12521;43.310;21.876;2023-12-29T11:51:27;8.4;96.0
22676;DHT22;12521;43.310;21.876;2023-12-29T11:56:14;8.7;96.0
22676;DHT22;12521;43.310;21.876;2023-12-29T12:00:52;8.7;96.0
22676;DHT22;12521;43.310;21.876;2023-12-29T12:05:45;8.9;96.0
22676;DHT22;12521;43.310;21.876;2023-12-29T12:10:31;8.9;96.0
22676;DHT22;12521;43.310;21.876;2023-12-29T12:15:31;9.1;96.0
22676;DHT22;12521;43.310;21.876;2023-12-29T12:20:09;9.1;96.0
22676;DHT22;12521;43.310;21.876;2023-12-29T12:24:49;9.4;96.0
22676;DHT22;12521;43.310;21.876;2023-12-29T12:29:33;9.4;96.0
22676;DHT22;12521;43.310;21.876;2023-12-29T12:34:11;9.6;96.0
22676;DHT22;12521;43.310;21.876;2023-12-29T12:38:50;9.6;96.0
22676;DHT22;12521;43.310;21.876;2023-12-29T12:43:31;9.8;96.0
22676;DHT22;12521;43.310;21.876;2023-12-29T12:48:46;9.8;96.0
22676;DHT22;12521;43.310;21.876;2023-12-29T12:53:23;9.9;96.0
22676;DHT22;12521;43.310;21.876;2023-12-29T12:58:02;9.9;96.0
22676;DHT22;12521;43.310;21.876;2023-12-29T13:02:39;9.9;96.0
22676;DHT22;12521;43.310;21.876;2023-12-29T13:07:21;10.0;96.0
22676;DHT22;12521;43.310;21.876;2023-12-29T13:12:14;10.0;96.0
22676;DHT22;12521;43.310;21.876;2023-12-29T13:16:52;10.1;96.0
22676;DHT22;12521;43.310;21.876;2023-12-29T13:21:28;10.1;96.0
22676;DHT22;12521;43.310;21.876;2023-12-29T13:26:07;10.1;96.0
22676;DHT22;12521;43.310;21.876;2023-12-29T13:30:47;10.1;96.0
22676;DHT22;12521;43.310;21.876;2023-12-29T13:35:31;10.2;96.0
22676;DHT22;12521;43.310;21.876;2023-12-29T13:40:37;10.2;96.0
22676;DHT22;12521;43.310;21.876;2023-12-29T13:45:42;10.2;96.0
22676;DHT22;12521;43.310;21.876;2023-12-29T13:50:19;10.2;96.0
22676;DHT22;12521;43.310;21.876;2023-12-29T13:54:58;10.2;96.0
22676;DHT22;12521;43.310;21.876;2023-12-29T13:59:34;10.2;96.0
22676;DHT22;12521;43.310;21.876;2023-12-29T14:04:14;10.1;96.0
22676;DHT22;12521;43.310;21.876;2023-12-29T14:08:55;10.1;96.0
22676;DHT22;12521;43.310;21.876;2023-12-29T14:13:31;10.0;96.0
22676;DHT22;12521;43.310;21.876;2023-12-29T14:18:20;10.0;96.0
22676;DHT22;12521;43.310;21.876;2023-12-29T14:23:31;9.8;96.0
22676;DHT22;12521;43.310;21.876;2023-12-29T14:28:14;9.8;96.0
22676;DHT22;12521;43.310;21.876;2023-12-29T14:32:55;9.8;96.0
22676;DHT22;12521;43.310;21.876;2023-12-29T14:37:31;9.6;96.0
22676;DHT22;12521;43.310;21.876;2023-12-29T14:42:07;9.6;96.0
22676;DHT22;12521;43.310;21.876;2023-12-29T14:46:43;9.4;96.0
22676;DHT22;12521;43.310;21.876;2023-12-29T14:51:20;9.4;96.0
22676;DHT22;12521;43.310;21.876;2023-12-29T14:55:57;9.1;96.0
22676;DHT22;12521;43.310;21.876;2023-12-29T15:00:33;9.1;96.0
22676;DHT22;12521;43.310;21.876;2023-12-29T15:05:09;8.8;96.0
22676;DHT22;12521;43.310;21.876;2023-12-29T15:09:46;8.8;96.0
22676;DHT22;12521;43.310;21.876;2023-12-29T15:14:22;8.5;96.0
22676;DHT22;12521;43.310;21.876;2023-12-29T15:18:59;8.5;96.0
22676;DHT22;12521;43.310;21.876;2023-12-29T15:23:35;8.2;96.0
22676;DHT22;12521;43.310;21.876;2023-12-29T15:28:12;8.2;96.0
22676;DHT22;12521;43.310;21.876;2023-12-29T15:32:51;8.2;96.0
22676;DHT22;12521;43.310;21.876;2023-12-29T15:37:28;8.0;96.0
22676;DHT22;12521;43.310;21.876;2023-12-29T15:42:04;8.0;96.0
22676;DHT22;12521;43.310;21.876;2023-12-29T15:46:41;7.8;96.0
22676;DHT22;12521;43.310;21.876;2023-12-29T15:51:17;7.8;96.0
22676;DHT22;12521;43.310;21.876;2023-12-29T15:55:53;7.5;96.0
22676;DHT22;12521;43.310;21.876;2023-12-29T16:00:29;7.5;96.0
22676;DHT22;12521;43.310;21.876;2023-12-29T16:05:06;7.2;96.0
22676;DHT22;12521;43.310;21.876;2023-12-29T16:09:43;7.2;96.0
22676;DHT22;12521;43.310;21.876;2023-12-29T16:14:19;7.0;96.0
22676;DHT22;12521;43.310;21.876;2023-12-29T16:18:55;7.0;96.0
22676;DHT22;12521;43.310;21.876;2023-12-29T16:23:36;6.8;96.0
22676;DHT22;12521;43.310;21.876;2023-12-29T16:28:12;6.8;96.0
22676;DHT22;12521;43.310;21.876;2023-12-29T16:32:48;6.8;96.0
22676;DHT22;12521;43.310;21.876;2023-12-29T16:37:25;6.6;96.0
22676;DHT22;12521;43.310;21.876;2023-12-29T16:42:02;6.6;96.0
22676;DHT22;12521;43.310;21.876;2023-12-29T16:46:40;6.5;96.0
22676;DHT22;12521;43.310;21.876;2023-12-29T16:51:16;6.5;96.0
22676;DHT22;12521;43.310;21.876;2023-12-29T16:55:52;6.4;96.0
22676;DHT22;12521;43.310;21.876;2023-12-29T17:00:29;6.4;96.0
22676;DHT22;12521;43.310;21.876;2023-12-29T17:05:06;6.2;96.0
22676;DHT22;12521;43.310;21.876;2023-12-29T17:09:43;6.2;96.0
22676;DHT22;12521;43.310;21.876;2023-12-29T17:14:19;6.0;96.0
22676;DHT22;12521;43.310;21.876;2023-12-29T17:18:55;6.0;96.0
22676;DHT22;12521;43.310;21.876;2023-12-29T17:23:31;5.9;96.0
22676;DHT22;12521;43.310;21.876;2023-12-29T17:28:07;5.9;96.0
22676;DHT22;12521;43.310;21.876;2023-12-29T17:32:43;5.9;96.0
22676;DHT22;12521;43.310;21.876;2023-12-29T17:37:20;5.8;96.0
22676;DHT22;12521;43.310;21.876;2023-12-29T17:41:56;5.8;96.0
22676;DHT22;12521;43.310;21.876;2023-12-29T17:46:32;5.8;96.0
22676;DHT22;12521;43.310;21.876;2023-12-29T17:51:09;5.8;96.0
22676;DHT22;12521;43.310;21.876;2023-12-29T17:55:45;5.8;96.0
22676;DHT22;12521;43.310;21.876;2023-12-29T18:00:22;5.8;96.0
22676;DHT22;12521;43.310;21.876;2023-12-29T18:04:58;5.8;96.0
22676;DHT22;12521;43.310;21.876;2023-12-29T18:09:37;5.8;96.0
22676;DHT22;12521;43.310;21.876;2023-12-29T18:14:14;5.7;96.0
22676;DHT22;12521;43.310;21.876;2023-12-29T18:18:51;5.7;96.0
22676;DHT22;12521;43.310;21.876;2023-12-29T18:23:27;5.6;96.0
22676;DHT22;12521;43.310;21.876;2023-12-29T18:28:05;5.6;96.0
22676;DHT22;12521;43.310;21.876;2023-12-29T18:32:41;5.6;96.0
22676;DHT22;12521;43.310;21.876;2023-12-29T18:37:18;5.4;96.0
22676;DHT22;12521;43.310;21.876;2023-12-29T18:41:54;5.4;96.0
22676;DHT22;12521;43.310;21.876;2023-12-29T18:46:31;5.3;96.0
22676;DHT22;12521;43.310;21.876;2023-12-29T18:51:07;5.3;96.0
22676;DHT22;12521;43.310;21.876;2023-12-29T18:55:43;5.2;96.0
22676;DHT22;12521;43.310;21.876;2023-12-29T19:00:19;5.2;96.0
22676;DHT22;12521;43.310;21.876;2023-12-29T19:04:56;5.2;96.0
22676;DHT22;12521;43.310;21.876;2023-12-29T19:09:32;5.2;96.0
22676;DHT22;12521;43.310;21.876;2023-12-29T19:14:08;5.1;96.0
22676;DHT22;12521;43.310;21.876;2023-12-29T19:18:44;5.1;96.0
22676;DHT22;12521;43.310;21.876;2023-12-29T19:23:21;5.1;96.0
22676;DHT22;12521;43.310;21.876;2023-12-29T19:27:57;5.0;96.0
22676;DHT22;12521;43.310;21.876;2023-12-29T19:32:33;5.0;96.0
22676;DHT22;12521;43.310;21.876;2023-12-29T19:37:10;5.0;96.0
22676;DHT22;12521;43.310;21.876;2023-12-29T19:41:46;5.0;96.0
22676;DHT22;12521;43.310;21.876;2023-12-29T19:46:22;4.9;96.0
22676;DHT22;12521;43.310;21.876;2023-12-29T19:50:59;4.9;96.0
22676;DHT22;12521;43.310;21.876;2023-12-29T19:55:35;4.8;96.0
22676;DHT22;12521;43.310;21.876;2023-12-29T20:00:13;4.8;96.0
22676;DHT22;12521;43.310;21.876;2023-12-29T20:04:50;4.7;96.0
22676;DHT22;12521;43.310;21.876;2023-12-29T20:09:26;4.7;96.0
22676;DHT22;12521;43.310;21.876;2023-12-29T20:14:03;4.6;96.0
22676;DHT22;12521;43.310;21.876;2023-12-29T20:18:39;4.6;96.0
22676;DHT22;12521;43.310;21.876;2023-12-29T20:23:15;4.6;96.0
22676;DHT22;12521;43.310;21.876;2023-12-29T20:27:51;4.5;96.0
22676;DHT22;12521;43.310;21.876;2023-12-29T20:32:28;4.5;96.0
22676;DHT22;12521;43.310;21.876;2023-12-29T20:37:04;4.4;96.0
22676;DHT22;12521;43.310;21.876;2023-12-29T20:41:40;4.4;96.0
22676;DHT22;12521;43.310;21.876;2023-12-29T20:46:17;4.4;96.0
22676;DHT22;12521;43.310;21.876;2023-12-29T20:50:55;4.4;96.0
22676;DHT22;12521;43.310;21.876;2023-12-29T20:55:31;4.4;96.0
22676;DHT22;12521;43.310;21.876;2023-12-29T21:00:08;4.4;96.0
22676;DHT22;12521;43.310;21.876;2023-12-29T21:04:47;4.4;96.0
22676;DHT22;12521;43.310;21.876;2023-12-29T21:09:23;4.4;96.0
22676;DHT22;12521;43.310;21.876;2023-12-29T21:14:00;4.3;96.0
22676;DHT22;12521;43.310;21.876;2023-12-29T21:18:36;4.3;96.0
22676;DHT22;12521;43.310;21.876;2023-12-29T21:23:12;4.3;96.0
22676;DHT22;12521;43.310;21.876;2023-12-29T21:27:48;4.2;96.0
22676;DHT22;12521;43.310;21.876;2023-12-29T21:32:24;4.2;96.0
22676;DHT22;12521;43.310;21.876;2023-12-29T21:37:01;4.1;96.0
22676;DHT22;12521;43.310;21.876;2023-12-29T21:41:37;4.1;96.0
22676;DHT22;12521;43.310;21.876;2023-12-29T21:46:13;4.0;96.0
22676;DHT22;12521;43.310;21.876;2023-12-29T21:50:51;4.0;96.0
22676;DHT22;12521;43.310;21.876;2023-12-29T21:55:27;4.0;96.0
22676;DHT22;12521;43.310;21.876;2023-12-29T22:00:05;4.0;96.0
22676;DHT22;12521;43.310;21.876;2023-12-29T22:04:46;4.0;96.0
22676;DHT22;12521;43.310;21.876;2023-12-29T22:09:22;4.0;96.0
22676;DHT22;12521;43.310;21.876;2023-12-29T22:13:58;3.9;96.0
22676;DHT22;12521;43.310;21.876;2023-12-29T22:18:35;3.9;96.0
22676;DHT22;12521;43.310;21.876;2023-12-29T22:23:12;3.9;96.0
22676;DHT22;12521;43.310;21.876;2023-12-29T22:27:48;3.8;96.0
22676;DHT22;12521;43.310;21.876;2023-12-29T22:32:24;3.8;96.0
22676;DHT22;12521;43.310;21.876;2023-12-29T22:37:01;3.8;96.0
22676;DHT22;12521;43.310;21.876;2023-12-29T22:41:38;3.8;96.0
22676;DHT22;12521;43.310;21.876;2023-12-29T22:46:15;3.8;96.0
22676;DHT22;12521;43.310;21.876;2023-12-29T22:50:54;3.8;96.0
22676;DHT22;12521;43.310;21.876;2023-12-29T22:55:30;3.7;96.0
22676;DHT22;12521;43.310;21.876;2023-12-29T23:00:07;3.7;96.0
22676;DHT22;12521;43.310;21.876;2023-12-29T23:04:49;3.6;96.0
22676;DHT22;12521;43.310;21.876;2023-12-29T23:09:26;3.6;96.0
22676;DHT22;12521;43.310;21.876;2023-12-29T23:14:02;3.6;96.0
22676;DHT22;12521;43.310;21.876;2023-12-29T23:18:39;3.6;96.0
22676;DHT22;12521;43.310;21.876;2023-12-29T23:23:15;3.6;96.0
22676;DHT22;12521;43.310;21.876;2023-12-29T23:27:51;3.6;96.0
22676;DHT22;12521;43.310;21.876;2023-12-29T23:32:28;3.6;96.0
22676;DHT22;12521;43.310;21.876;2023-12-29T23:37:04;3.5;96.0
22676;DHT22;12521;43.310;21.876;2023-12-29T23:41:41;3.5;96.0
22676;DHT22;12521;43.310;21.876;2023-12-29T23:46:17;3.4;96.0
22676;DHT22;12521;43.310;21.876;2023-12-29T23:50:54;3.4;96.0
22676;DHT22;12521;43.310;21.876;2023-12-29T23:55:30;3.3;96.0
